Time;durP1;ratioP1;P1;durP2;ratioP2;P2;SDS_P1;SDS_P2;PMS_P1;PMS_P2;Temp;Humidity;BMP_temperature;BMP_pressure;BME280_temperature;BME280_humidity;BME280_pressure;Samples;Min_cycle;Max_cycle;Signal;HPM_P1;HPM_P2
2023/12/18 00:00:16;;;;;;;;;;;;;;;;;;4997817;28;19930;-70
2023/12/18 00:02:42;;;;;;;;;;;;;;;;;;5005590;28;19936;-69
2023/12/18 00:05:08;;;;;;;;;;;;;;;;;;5007772;28;20019;-69
2023/12/18 00:07:34;;;;;;;;;;;;;;;;;;5003210;28;20016;-69
2023/12/18 00:10:00;;;;;;;;;;;;;;;;;;5005663;28;20431;-69
2023/12/18 00:12:26;;;;;;;;;;;;;;;;;;5002396;28;20024;-69
2023/12/18 00:14:52;;;;;;;;;;;;;;;;;;5000929;28;19929;-69
2023/12/18 00:17:18;;;;;;;;;;;;;;;;;;5004424;28;20262;-70
2023/12/18 00:19:44;;;;;;;;;;;;;;;;;;5002167;28;20394;-69
2023/12/18 00:22:10;;;;;;;;;;;;;;;;;;5007863;28;19932;-69
2023/12/18 00:24:36;;;;;;;;;;;;;;;;;;4997467;28;19926;-69
2023/12/18 00:27:01;;;;;;;;;;;;;;;;;;5001778;28;19961;-70
2023/12/18 00:29:27;;;;;;;;;;;;;;;;;;5000274;28;20012;-70
2023/12/18 00:31:53;;;;;;;;;;;;;;;;;;5000413;28;20025;-69
2023/12/18 00:34:19;;;;;;;;;;;;;;;;;;5003298;28;19933;-69
2023/12/18 00:36:45;;;;;;;;;;;;;;;;;;4999945;28;19929;-71
2023/12/18 00:39:11;;;;;;;;;;;;;;;;;;5002576;28;19929;-69
2023/12/18 00:41:37;;;;;;;;;;;;;;;;;;5005537;28;19932;-69
2023/12/18 00:44:03;;;;;;;;;;;;;;;;;;5006795;28;19925;-69
2023/12/18 00:46:29;;;;;;;;;;;;;;;;;;5008163;28;20357;-69
2023/12/18 00:48:55;;;;;;;;;;;;;;;;;;5002173;28;19926;-69
2023/12/18 00:51:21;;;;;;;;;;;;;;;;;;5002554;28;19929;-69
2023/12/18 00:53:47;;;;;;;;;;;;;;;;;;5003289;28;20386;-70
2023/12/18 00:56:13;;;;;;;;;;;;;;;;;;5002095;28;19929;-69
2023/12/18 00:58:39;;;;;;;;;;;;;;;;;;5006605;28;19925;-69
2023/12/18 01:01:05;;;;;;;;;;;;;;;;;;5002481;28;20307;-68
2023/12/18 01:03:31;;;;;;;;;;;;;;;;;;5001439;28;19929;-68
2023/12/18 01:05:57;;;;;;;;;;;;;;;;;;5003958;28;19941;-69
2023/12/18 01:08:22;;;;;;;;;;;;;;;;;;5007155;28;19934;-69
2023/12/18 01:10:48;;;;;;;;;;;;;;;;;;5002004;28;19991;-69
2023/12/18 01:13:14;;;;;;;;;;;;;;;;;;5002351;28;20003;-68
2023/12/18 01:15:40;;;;;;;;;;;;;;;;;;5001970;28;19985;-70
2023/12/18 01:18:06;;;;;;;;;;;;;;;;;;4997784;28;19926;-68
2023/12/18 01:20:32;;;;;;;;;;;;;;;;;;5008253;28;19929;-70
2023/12/18 01:22:58;;;;;;;;;;;;;;;;;;5000249;28;20288;-70
2023/12/18 01:25:24;;;;;;;;;;;;;;;;;;5004084;28;19929;-69
2023/12/18 01:27:50;;;;;;;;;;;;;;;;;;5006233;28;19922;-69
2023/12/18 01:30:16;;;;;;;;;;;;;;;;;;5003275;28;19925;-69
2023/12/18 01:32:42;;;;;;;;;;;;;;;;;;5010653;28;20007;-67
2023/12/18 01:35:07;;;;;;;;;;;;;;;;;;5004175;28;19972;-69
2023/12/18 01:37:33;;;;;;;;;;;;;;;;;;5003481;28;19964;-69
2023/12/18 01:39:59;;;;;;;;;;;;;;;;;;4993566;28;19933;-69
2023/12/18 01:42:25;;;;;;;;;;;;;;;;;;5009764;28;19948;-69
2023/12/18 01:44:51;;;;;;;;;;;;;;;;;;5002608;28;20267;-69
2023/12/18 01:47:17;;;;;;;;;;;;;;;;;;5002486;28;20057;-69
2023/12/18 01:49:43;;;;;;;;;;;;;;;;;;5001078;28;20012;-69
2023/12/18 01:52:09;;;;;;;;;;;;;;;;;;5007438;28;19922;-70
2023/12/18 01:54:35;;;;;;;;;;;;;;;;;;5003220;28;20368;-69
2023/12/18 01:57:01;;;;;;;;;;;;;;;;;;5010016;28;19929;-69
2023/12/18 01:59:27;;;;;;;;;;;;;;;;;;5008866;28;19932;-69
2023/12/18 02:01:53;;;;;;;;;;;;;;;;;;5010066;28;19957;-69
2023/12/18 02:04:18;;;;;;;;;;;;;;;;;;5007477;28;20056;-69
2023/12/18 02:06:44;;;;;;;;;;;;;;;;;;5006155;28;19929;-69
2023/12/18 02:09:10;;;;;;;;;;;;;;;;;;5004942;28;19929;-70
2023/12/18 02:11:36;;;;;;;;;;;;;;;;;;5011623;28;19922;-70
2023/12/18 02:14:02;;;;;;;;;;;;;;;;;;5007889;28;19933;-70
2023/12/18 02:16:28;;;;;;;;;;;;;;;;;;5010851;28;19929;-69
2023/12/18 02:18:54;;;;;;;;;;;;;;;;;;5006376;28;19925;-69
2023/12/18 02:21:20;;;;;;;;;;;;;;;;;;5010000;28;20359;-68
2023/12/18 02:23:46;;;;;;;;;;;;;;;;;;5001682;28;19961;-70
2023/12/18 02:26:12;;;;;;;;;;;;;;;;;;5003430;28;19929;-70
2023/12/18 02:28:38;;;;;;;;;;;;;;;;;;5011889;28;19925;-70
2023/12/18 02:31:04;;;;;;;;;;;;;;;;;;5004859;28;19944;-70
2023/12/18 02:33:30;;;;;;;;;;;;;;;;;;5003915;28;19925;-70
2023/12/18 02:35:56;;;;;;;;;;;;;;;;;;5007061;28;19953;-70
2023/12/18 02:38:22;;;;;;;;;;;;;;;;;;5008364;28;20344;-70
2023/12/18 02:40:48;;;;;;;;;;;;;;;;;;5005128;28;19925;-70
2023/12/18 02:43:14;;;;;;;;;;;;;;;;;;5001091;28;20025;-69
2023/12/18 02:45:40;;;;;;;;;;;;;;;;;;5005096;28;19932;-70
2023/12/18 02:48:06;;;;;;;;;;;;;;;;;;5006316;28;19921;-68
2023/12/18 02:50:32;;;;;;;;;;;;;;;;;;5004555;28;19930;-70
2023/12/18 02:52:58;;;;;;;;;;;;;;;;;;5005154;28;20326;-69
2023/12/18 02:55:24;;;;;;;;;;;;;;;;;;5003660;28;19933;-69
2023/12/18 02:57:49;;;;;;;;;;;;;;;;;;5006172;28;19921;-69
2023/12/18 03:00:15;;;;;;;;;;;;;;;;;;5006344;28;19928;-69
2023/12/18 03:02:42;;;;;;;;;;;;;;;;;;5011523;28;20016;-70
2023/12/18 03:05:08;;;;;;;;;;;;;;;;;;5007487;28;19926;-69
2023/12/18 03:07:34;;;;;;;;;;;;;;;;;;5004128;28;20391;-69
2023/12/18 03:10:00;;;;;;;;;;;;;;;;;;5011695;28;20280;-69
2023/12/18 03:12:26;;;;;;;;;;;;;;;;;;4997175;28;20322;-69
2023/12/18 03:14:52;;;;;;;;;;;;;;;;;;5008572;28;19988;-70
2023/12/18 03:17:18;;;;;;;;;;;;;;;;;;5009486;28;20391;-68
2023/12/18 03:19:44;;;;;;;;;;;;;;;;;;5012219;28;20008;-69
2023/12/18 03:22:10;;;;;;;;;;;;;;;;;;5006248;28;20452;-69
2023/12/18 03:24:36;;;;;;;;;;;;;;;;;;5000670;28;20324;-70
2023/12/18 03:27:02;;;;;;;;;;;;;;;;;;5004461;28;20000;-70
2023/12/18 03:29:27;;;;;;;;;;;;;;;;;;5009577;28;20263;-70
2023/12/18 03:31:53;;;;;;;;;;;;;;;;;;5007824;28;19926;-70
2023/12/18 03:34:19;;;;;;;;;;;;;;;;;;5012486;28;19968;-69
2023/12/18 03:36:45;;;;;;;;;;;;;;;;;;5009111;28;19925;-69
2023/12/18 03:39:11;;;;;;;;;;;;;;;;;;5004710;28;19930;-69
2023/12/18 03:41:37;;;;;;;;;;;;;;;;;;5008370;28;19930;-70
2023/12/18 03:44:03;;;;;;;;;;;;;;;;;;5007850;28;19926;-69
2023/12/18 03:46:29;;;;;;;;;;;;;;;;;;5004645;28;19936;-69
2023/12/18 03:48:55;;;;;;;;;;;;;;;;;;4992349;28;20330;-69
2023/12/18 03:51:21;;;;;;;;;;;;;;;;;;5009741;28;19921;-69
2023/12/18 03:53:47;;;;;;;;;;;;;;;;;;5011957;28;19921;-70
2023/12/18 03:56:13;;;;;;;;;;;;;;;;;;5004181;28;19929;-69
2023/12/18 03:58:39;;;;;;;;;;;;;;;;;;5005394;28;19926;-69
2023/12/18 04:01:05;;;;;;;;;;;;;;;;;;5005918;28;19928;-70
2023/12/18 04:03:31;;;;;;;;;;;;;;;;;;5010022;28;19928;-69
2023/12/18 04:05:56;;;;;;;;;;;;;;;;;;5006647;28;19965;-69
2023/12/18 04:08:22;;;;;;;;;;;;;;;;;;5011088;28;19922;-69
2023/12/18 04:10:48;;;;;;;;;;;;;;;;;;5008732;28;20016;-69
2023/12/18 04:13:14;;;;;;;;;;;;;;;;;;4999308;28;20063;-69
2023/12/18 04:15:40;;;;;;;;;;;;;;;;;;5007658;28;19934;-70
2023/12/18 04:18:06;;;;;;;;;;;;;;;;;;5008800;28;20012;-71
2023/12/18 04:20:32;;;;;;;;;;;;;;;;;;5007107;28;19925;-69
2023/12/18 04:22:58;;;;;;;;;;;;;;;;;;5009052;28;19932;-69
2023/12/18 04:25:24;;;;;;;;;;;;;;;;;;5010785;28;20008;-69
2023/12/18 04:27:53;;;;;;;;;;;;;;;;;;5005839;28;19921;-69
2023/12/18 04:30:19;;;;;;;;;;;;;;;;;;5004280;28;19929;-69
2023/12/18 04:32:45;;;;;;;;;;;;;;;;;;5009379;28;19979;-70
2023/12/18 04:35:11;;;;;;;;;;;;;;;;;;5004779;28;20330;-70
2023/12/18 04:37:37;;;;;;;;;;;;;;;;;;5009380;28;19972;-70
2023/12/18 04:40:03;;;;;;;;;;;;;;;;;;5009307;28;19922;-69
2023/12/18 04:42:29;;;;;;;;;;;;;;;;;;5005737;28;19936;-69
2023/12/18 04:44:55;;;;;;;;;;;;;;;;;;4998879;28;19922;-69
2023/12/18 04:47:21;;;;;;;;;;;;;;;;;;5005994;28;20355;-69
2023/12/18 04:49:47;;;;;;;;;;;;;;;;;;4999519;28;19929;-69
2023/12/18 04:52:13;;;;;;;;;;;;;;;;;;5004161;28;20416;-69
2023/12/18 04:54:39;;;;;;;;;;;;;;;;;;4997997;28;20000;-70
2023/12/18 04:57:05;;;;;;;;;;;;;;;;;;5001752;28;19948;-69
2023/12/18 04:59:30;;;;;;;;;;;;;;;;;;4996402;28;19922;-69
2023/12/18 05:01:56;;;;;;;;;;;;;;;;;;5002633;28;19926;-69
2023/12/18 05:04:22;;;;;;;;;;;;;;;;;;5007579;28;19925;-69
2023/12/18 05:06:48;;;;;;;;;;;;;;;;;;5005549;28;20016;-69
2023/12/18 05:09:14;;;;;;;;;;;;;;;;;;5005596;28;20542;-70
2023/12/18 05:11:41;;;;;;;;;;;;;;;;;;5002867;28;20406;-69
2023/12/18 05:14:06;;;;;;;;;;;;;;;;;;4997498;28;20021;-70
2023/12/18 05:16:32;;;;;;;;;;;;;;;;;;5004113;28;20020;-69
2023/12/18 05:18:58;;;;;;;;;;;;;;;;;;4999598;28;20392;-70
2023/12/18 05:21:24;;;;;;;;;;;;;;;;;;4999009;28;20013;-69
2023/12/18 05:23:51;;;;;;;;;;;;;;;;;;4999809;28;19933;-70
2023/12/18 05:26:17;;;;;;;;;;;;;;;;;;5002140;28;20369;-70
2023/12/18 05:28:43;;;;;;;;;;;;;;;;;;5003601;28;19922;-69
2023/12/18 05:31:09;;;;;;;;;;;;;;;;;;5006724;28;19934;-69
2023/12/18 05:33:35;;;;;;;;;;;;;;;;;;5002711;28;22337;-70
2023/12/18 05:36:01;;;;;;;;;;;;;;;;;;5007422;28;19929;-69
2023/12/18 05:38:27;;;;;;;;;;;;;;;;;;5007706;28;19977;-70
2023/12/18 05:40:53;;;;;;;;;;;;;;;;;;5010743;28;19975;-70
2023/12/18 05:43:19;;;;;;;;;;;;;;;;;;5005024;28;19941;-70
2023/12/18 05:45:45;;;;;;;;;;;;;;;;;;5008765;28;19925;-69
2023/12/18 05:48:11;;;;;;;;;;;;;;;;;;5003894;28;20261;-69
2023/12/18 05:50:37;;;;;;;;;;;;;;;;;;5009804;28;19975;-69
2023/12/18 05:53:03;;;;;;;;;;;;;;;;;;5002459;28;19929;-70
2023/12/18 05:55:29;;;;;;;;;;;;;;;;;;5012214;28;19936;-70
2023/12/18 05:57:55;;;;;;;;;;;;;;;;;;5000692;28;19926;-69
2023/12/18 06:00:21;;;;;;;;;;;;;;;;;;5003874;28;19922;-69
2023/12/18 06:02:46;;;;;;;;;;;;;;;;;;5002635;28;19926;-69
2023/12/18 06:05:12;;;;;;;;;;;;;;;;;;5009612;28;19975;-70
2023/12/18 06:07:38;;;;;;;;;;;;;;;;;;5011889;28;19925;-69
2023/12/18 06:10:04;;;;;;;;;;;;;;;;;;5012780;28;20481;-69
2023/12/18 06:12:30;;;;;;;;;;;;;;;;;;5009346;28;20251;-69
2023/12/18 06:14:56;;;;;;;;;;;;;;;;;;4986926;28;19925;-69
2023/12/18 06:17:22;;;;;;;;;;;;;;;;;;5010712;28;20012;-69
2023/12/18 06:19:49;;;;;;;;;;;;;;;;;;5005176;28;19929;-69
2023/12/18 06:22:15;;;;;;;;;;;;;;;;;;5012411;28;19922;-69
2023/12/18 06:24:41;;;;;;;;;;;;;;;;;;5008698;28;19928;-69
2023/12/18 06:27:07;;;;;;;;;;;;;;;;;;5012573;28;19925;-68
2023/12/18 06:29:33;;;;;;;;;;;;;;;;;;5010395;28;19921;-68
2023/12/18 06:31:59;;;;;;;;;;;;;;;;;;5011064;28;19953;-69
2023/12/18 06:34:25;;;;;;;;;;;;;;;;;;5008706;28;19972;-69
2023/12/18 06:36:50;;;;;;;;;;;;;;;;;;5012073;28;20304;-69
2023/12/18 06:39:16;;;;;;;;;;;;;;;;;;5011157;28;20418;-69
2023/12/18 06:41:42;;;;;;;;;;;;;;;;;;5010778;28;19925;-70
2023/12/18 06:44:08;;;;;;;;;;;;;;;;;;5010140;28;19929;-70
2023/12/18 06:46:34;;;;;;;;;;;;;;;;;;5009087;28;19953;-69
2023/12/18 06:49:03;;;;;;;;;;;;;;;;;;5010160;28;19957;-69
2023/12/18 06:51:29;;;;;;;;;;;;;;;;;;5010164;28;20394;-69
2023/12/18 06:53:55;;;;;;;;;;;;;;;;;;5009206;28;19929;-70
2023/12/18 06:56:21;;;;;;;;;;;;;;;;;;5006608;22;19934;-70
2023/12/18 06:58:47;;;;;;;;;;;;;;;;;;4972914;28;19934;-69
2023/12/18 07:01:13;;;;;;;;;;;;;;;;;;4968021;28;20364;-70
2023/12/18 07:03:39;;;;;;;;;;;;;;;;;;4974405;28;19930;-69
2023/12/18 07:06:04;;;;;;;;;;;;;;;;;;4966830;28;19932;-69
2023/12/18 07:08:30;;;;;;;;;;;;;;;;;;4975151;28;19930;-69
2023/12/18 07:10:57;;;;;;;;;;;;;;;;;;4972910;28;19922;-69
2023/12/18 07:13:23;;;;;;;;;;;;;;;;;;4969196;28;19941;-70
2023/12/18 07:15:49;;;;;;;;;;;;;;;;;;4951423;28;22493;-70
2023/12/18 07:18:15;;;;;;;;;;;;;;;;;;4971853;28;19977;-69
2023/12/18 07:20:41;;;;;;;;;;;;;;;;;;4955682;28;19996;-70
2023/12/18 07:23:06;;;;;;;;;;;;;;;;;;4950039;28;20376;-70
2023/12/18 07:25:32;;;;;;;;;;;;;;;;;;4975753;28;19926;-69
2023/12/18 07:27:58;;;;;;;;;;;;;;;;;;4976553;28;20006;-69
2023/12/18 07:30:24;;;;;;;;;;;;;;;;;;4980453;28;19925;-70
2023/12/18 07:32:50;;;;;;;;;;;;;;;;;;4977157;28;19926;-69
2023/12/18 07:35:16;;;;;;;;;;;;;;;;;;4968296;28;19926;-70
2023/12/18 07:37:42;;;;;;;;;;;;;;;;;;4953117;28;19929;-69
2023/12/18 07:40:08;;;;;;;;;;;;;;;;;;4984961;28;19922;-69
2023/12/18 07:42:34;;;;;;;;;;;;;;;;;;4974673;28;20376;-69
2023/12/18 07:45:00;;;;;;;;;;;;;;;;;;4974772;28;19926;-69
2023/12/18 07:47:25;;;;;;;;;;;;;;;;;;4971821;28;19938;-69
2023/12/18 07:49:51;;;;;;;;;;;;;;;;;;4964755;28;19977;-69
2023/12/18 07:52:17;;;;;;;;;;;;;;;;;;4971771;28;19926;-69
2023/12/18 07:54:43;;;;;;;;;;;;;;;;;;4946425;28;20001;-70
2023/12/18 07:57:09;;;;;;;;;;;;;;;;;;4971754;28;20426;-70
2023/12/18 07:59:39;;;;;;;;;;;;;;;;;;4968412;28;19926;-69
2023/12/18 08:02:05;;;;;;;;;;;;;;;;;;4949642;28;19977;-69
2023/12/18 08:04:31;;;;;;;;;;;;;;;;;;4961596;28;19968;-69
2023/12/18 08:06:57;;;;;;;;;;;;;;;;;;4971889;28;20431;-69
2023/12/18 08:09:23;;;;;;;;;;;;;;;;;;4955136;28;20025;-70
2023/12/18 08:11:49;;;;;;;;;;;;;;;;;;4969093;28;20291;-69
2023/12/18 08:14:16;;;;;;;;;;;;;;;;;;4983915;28;20076;-69
2023/12/18 08:16:42;;;;;;;;;;;;;;;;;;4972711;28;20013;-69
2023/12/18 08:19:08;;;;;;;;;;;;;;;;;;4968499;28;20025;-69
2023/12/18 08:21:34;;;;;;;;;;;;;;;;;;4968213;28;20299;-69
2023/12/18 08:24:01;;;;;;;;;;;;;;;;;;4968087;28;19929;-69
2023/12/18 08:26:26;;;;;;;;;;;;;;;;;;4949968;28;19922;-69
2023/12/18 08:28:53;;;;;;;;;;;;;;;;;;4968644;28;20699;-69
2023/12/18 08:31:19;;;;;;;;;;;;;;;;;;4967854;28;19930;-69
2023/12/18 08:33:44;;;;;;;;;;;;;;;;;;4960913;28;19937;-69
2023/12/18 08:36:10;;;;;;;;;;;;;;;;;;4970385;28;19925;-70
2023/12/18 08:38:36;;;;;;;;;;;;;;;;;;4964704;28;19926;-70
2023/12/18 08:41:02;;;;;;;;;;;;;;;;;;4971849;28;19969;-69
2023/12/18 08:43:28;;;;;;;;;;;;;;;;;;4964261;28;20025;-69
2023/12/18 08:45:54;;;;;;;;;;;;;;;;;;4965241;28;20001;-70
2023/12/18 08:48:20;;;;;;;;;;;;;;;;;;4966312;28;20276;-69
2023/12/18 08:50:46;;;;;;;;;;;;;;;;;;4968630;28;19926;-69
2023/12/18 08:53:12;;;;;;;;;;;;;;;;;;4959208;28;19922;-69
2023/12/18 08:55:39;;;;;;;;;;;;;;;;;;4970438;28;19933;-70
2023/12/18 08:58:05;;;;;;;;;;;;;;;;;;4973954;28;19922;-69
2023/12/18 09:00:31;;;;;;;;;;;;;;;;;;4952235;28;19930;-69
2023/12/18 09:02:58;;;;;;;;;;;;;;;;;;4951219;28;19922;-69
2023/12/18 09:05:24;;;;;;;;;;;;;;;;;;4977178;28;19929;-69
2023/12/18 09:07:50;;;;;;;;;;;;;;;;;;4979349;28;20567;-69
2023/12/18 09:10:17;;;;;;;;;;;;;;;;;;4958252;28;20394;-69
2023/12/18 09:12:44;;;;;;;;;;;;;;;;;;4977818;28;19977;-69
2023/12/18 09:15:10;;;;;;;;;;;;;;;;;;4962757;28;19930;-70
2023/12/18 09:17:35;;;;;;;;;;;;;;;;;;4964564;28;20013;-69
2023/12/18 09:20:02;;;;;;;;;;;;;;;;;;4971136;28;20499;-70
2023/12/18 09:22:28;;;;;;;;;;;;;;;;;;4973148;28;19922;-69
2023/12/18 09:24:54;;;;;;;;;;;;;;;;;;4957556;28;20419;-69
2023/12/18 09:27:20;;;;;;;;;;;;;;;;;;4968124;28;19929;-69
2023/12/18 09:29:46;;;;;;;;;;;;;;;;;;4972439;28;20295;-69
2023/12/18 09:32:12;;;;;;;;;;;;;;;;;;4968367;28;19949;-69
2023/12/18 09:34:39;;;;;;;;;;;;;;;;;;4972381;28;20365;-69
2023/12/18 09:37:05;;;;;;;;;;;;;;;;;;4956103;28;19979;-69
2023/12/18 09:39:31;;;;;;;;;;;;;;;;;;4964829;28;19930;-69
2023/12/18 09:41:57;;;;;;;;;;;;;;;;;;4970737;28;19922;-69
2023/12/18 09:44:23;;;;;;;;;;;;;;;;;;4973038;28;19932;-71
2023/12/18 09:46:49;;;;;;;;;;;;;;;;;;4965206;28;19930;-69
2023/12/18 09:49:15;;;;;;;;;;;;;;;;;;4948987;28;19945;-69
2023/12/18 09:51:41;;;;;;;;;;;;;;;;;;4972682;28;20575;-69
2023/12/18 09:54:07;;;;;;;;;;;;;;;;;;4962057;28;19976;-70
2023/12/18 09:56:33;;;;;;;;;;;;;;;;;;4953935;28;19953;-71
2023/12/18 09:58:59;;;;;;;;;;;;;;;;;;4962385;28;19936;-69
2023/12/18 10:01:25;;;;;;;;;;;;;;;;;;4978558;28;19982;-69
2023/12/18 10:03:51;;;;;;;;;;;;;;;;;;4977256;28;19980;-70
2023/12/18 10:06:16;;;;;;;;;;;;;;;;;;4972257;28;20392;-70
2023/12/18 10:08:42;;;;;;;;;;;;;;;;;;4968691;28;19945;-69
2023/12/18 10:11:08;;;;;;;;;;;;;;;;;;4971551;28;19930;-69
2023/12/18 10:13:34;;;;;;;;;;;;;;;;;;4973563;28;19930;-71
2023/12/18 10:16:00;;;;;;;;;;;;;;;;;;4970834;28;19946;-69
2023/12/18 10:18:26;;;;;;;;;;;;;;;;;;4972320;28;19930;-70
2023/12/18 10:20:52;;;;;;;;;;;;;;;;;;4974843;28;19928;-69
2023/12/18 10:23:18;;;;;;;;;;;;;;;;;;4972913;28;19965;-70
2023/12/18 10:25:44;;;;;;;;;;;;;;;;;;4981729;28;20412;-69
2023/12/18 10:28:10;;;;;;;;;;;;;;;;;;4953384;28;20316;-69
2023/12/18 10:30:36;;;;;;;;;;;;;;;;;;4971411;28;19926;-70
2023/12/18 10:33:05;;;;;;;;;;;;;;;;;;4967206;28;19930;-70
2023/12/18 10:35:31;;;;;;;;;;;;;;;;;;4966079;28;19922;-70
2023/12/18 10:37:57;;;;;;;;;;;;;;;;;;4954625;28;19953;-69
2023/12/18 10:40:25;;;;;;;;;;;;;;;;;;4973814;28;19932;-70
2023/12/18 10:42:51;;;;;;;;;;;;;;;;;;4966367;28;20017;-70
2023/12/18 10:45:17;;;;;;;;;;;;;;;;;;4973205;28;20009;-70
2023/12/18 10:47:43;;;;;;;;;;;;;;;;;;4952281;28;19929;-70
2023/12/18 10:50:10;;;;;;;;;;;;;;;;;;4973521;28;19930;-69
2023/12/18 10:52:38;;;;;;;;;;;;;;;;;;4973414;28;20021;-70
2023/12/18 10:55:04;;;;;;;;;;;;;;;;;;4973262;28;19922;-69
2023/12/18 10:57:30;;;;;;;;;;;;;;;;;;4967706;28;19937;-69
2023/12/18 10:59:57;;;;;;;;;;;;;;;;;;4966076;28;19926;-70
2023/12/18 11:02:24;;;;;;;;;;;;;;;;;;4970232;28;19941;-70
2023/12/18 11:04:51;;;;;;;;;;;;;;;;;;4967662;28;20210;-71
2023/12/18 11:07:17;;;;;;;;;;;;;;;;;;4968816;28;19969;-71
2023/12/18 11:09:43;;;;;;;;;;;;;;;;;;4961877;28;19930;-70
2023/12/18 11:12:09;;;;;;;;;;;;;;;;;;4960977;28;19989;-70
2023/12/18 11:14:35;;;;;;;;;;;;;;;;;;4964709;28;19922;-71
2023/12/18 11:17:01;;;;;;;;;;;;;;;;;;4962018;28;20029;-70
2023/12/18 11:19:27;;;;;;;;;;;;;;;;;;4950077;28;20342;-69
2023/12/18 11:21:54;;;;;;;;;;;;;;;;;;4973593;28;20018;-69
2023/12/18 11:24:20;;;;;;;;;;;;;;;;;;4965636;28;19930;-69
2023/12/18 11:26:46;;;;;;;;;;;;;;;;;;4968321;28;20805;-69
2023/12/18 11:29:11;;;;;;;;;;;;;;;;;;4949518;28;19922;-69
2023/12/18 11:31:37;;;;;;;;;;;;;;;;;;4975353;28;20316;-69
2023/12/18 11:34:04;;;;;;;;;;;;;;;;;;4971980;28;19930;-69
2023/12/18 11:36:30;;;;;;;;;;;;;;;;;;4953321;28;19928;-69
2023/12/18 11:38:59;;;;;;;;;;;;;;;;;;4955859;28;19926;-70
2023/12/18 11:41:25;;;;;;;;;;;;;;;;;;4968597;28;19941;-69
2023/12/18 11:43:51;;;;;;;;;;;;;;;;;;4956370;28;19949;-70
2023/12/18 11:46:17;;;;;;;;;;;;;;;;;;4968335;28;21633;-69
2023/12/18 11:48:43;;;;;;;;;;;;;;;;;;4953676;28;20387;-69
2023/12/18 11:51:09;;;;;;;;;;;;;;;;;;4970027;28;19961;-69
2023/12/18 11:53:35;;;;;;;;;;;;;;;;;;4966079;28;19962;-70
2023/12/18 11:56:01;;;;;;;;;;;;;;;;;;4966509;28;20017;-69
2023/12/18 11:58:27;;;;;;;;;;;;;;;;;;4976627;28;20660;-69
2023/12/18 12:00:53;;;;;;;;;;;;;;;;;;4959460;28;20009;-69
2023/12/18 12:03:19;;;;;;;;;;;;;;;;;;4970801;28;19973;-70
2023/12/18 12:05:45;;;;;;;;;;;;;;;;;;4971513;28;19985;-68
2023/12/18 12:08:11;;;;;;;;;;;;;;;;;;4979835;28;19976;-69
2023/12/18 12:10:37;;;;;;;;;;;;;;;;;;4970212;28;19922;-69
2023/12/18 12:13:04;;;;;;;;;;;;;;;;;;4979306;28;20020;-68
2023/12/18 12:15:30;;;;;;;;;;;;;;;;;;4970850;28;19922;-69
2023/12/18 12:17:56;;;;;;;;;;;;;;;;;;4973562;28;19950;-69
2023/12/18 12:20:22;;;;;;;;;;;;;;;;;;4947738;28;19926;-69
2023/12/18 12:22:48;;;;;;;;;;;;;;;;;;4973651;28;20000;-70
2023/12/18 12:25:14;;;;;;;;;;;;;;;;;;4953505;28;19968;-68
2023/12/18 12:27:40;;;;;;;;;;;;;;;;;;4966592;28;19926;-68
2023/12/18 12:30:06;;;;;;;;;;;;;;;;;;4972676;28;20053;-68
2023/12/18 12:32:32;;;;;;;;;;;;;;;;;;4955276;28;20008;-69
2023/12/18 12:34:57;;;;;;;;;;;;;;;;;;4972589;28;19922;-68
2023/12/18 12:37:23;;;;;;;;;;;;;;;;;;4945738;28;19929;-68
2023/12/18 12:39:49;;;;;;;;;;;;;;;;;;4972792;28;19965;-68
2023/12/18 12:42:15;;;;;;;;;;;;;;;;;;4970181;28;20268;-68
2023/12/18 12:44:41;;;;;;;;;;;;;;;;;;4971537;28;19922;-68
2023/12/18 12:47:07;;;;;;;;;;;;;;;;;;4968499;28;19923;-68
2023/12/18 12:49:33;;;;;;;;;;;;;;;;;;4972749;28;19964;-68
2023/12/18 12:51:59;;;;;;;;;;;;;;;;;;4968121;28;19969;-68
2023/12/18 12:54:25;;;;;;;;;;;;;;;;;;4972711;28;20031;-68
2023/12/18 12:56:51;;;;;;;;;;;;;;;;;;4972163;28;20399;-68
2023/12/18 12:59:17;;;;;;;;;;;;;;;;;;4970178;28;19974;-68
2023/12/18 13:01:43;;;;;;;;;;;;;;;;;;4951158;28;19922;-68
2023/12/18 13:04:09;;;;;;;;;;;;;;;;;;4972319;28;19989;-68
2023/12/18 13:06:35;;;;;;;;;;;;;;;;;;4970880;28;20010;-69
2023/12/18 13:09:00;;;;;;;;;;;;;;;;;;4970421;28;20339;-69
2023/12/18 13:11:26;;;;;;;;;;;;;;;;;;4975050;28;20261;-68
2023/12/18 13:13:53;;;;;;;;;;;;;;;;;;4977377;28;19937;-68
2023/12/18 13:16:19;;;;;;;;;;;;;;;;;;4967893;28;19930;-68
2023/12/18 13:18:45;;;;;;;;;;;;;;;;;;4975627;28;20395;-69
2023/12/18 13:21:11;;;;;;;;;;;;;;;;;;4979279;28;19922;-68
2023/12/18 13:23:37;;;;;;;;;;;;;;;;;;4972969;28;19926;-68
2023/12/18 13:26:04;;;;;;;;;;;;;;;;;;4971721;28;19926;-69
2023/12/18 13:28:30;;;;;;;;;;;;;;;;;;4958387;28;19922;-67
2023/12/18 13:30:56;;;;;;;;;;;;;;;;;;4980163;28;19976;-67
2023/12/18 13:33:22;;;;;;;;;;;;;;;;;;4971787;28;19962;-67
2023/12/18 13:35:48;;;;;;;;;;;;;;;;;;4979833;28;19921;-67
2023/12/18 13:38:15;;;;;;;;;;;;;;;;;;4952670;28;19929;-68
2023/12/18 13:40:41;;;;;;;;;;;;;;;;;;4973221;28;20549;-67
2023/12/18 13:43:07;;;;;;;;;;;;;;;;;;4975134;28;19922;-68
2023/12/18 13:45:32;;;;;;;;;;;;;;;;;;4962805;28;19937;-68
2023/12/18 13:47:58;;;;;;;;;;;;;;;;;;4957282;28;19933;-68
2023/12/18 13:50:24;;;;;;;;;;;;;;;;;;4976258;28;20398;-67
2023/12/18 13:52:50;;;;;;;;;;;;;;;;;;4972589;28;19933;-67
2023/12/18 13:55:16;;;;;;;;;;;;;;;;;;4957748;28;19930;-68
2023/12/18 13:57:43;;;;;;;;;;;;;;;;;;4975169;28;19932;-68
2023/12/18 14:00:09;;;;;;;;;;;;;;;;;;4974985;28;19926;-69
2023/12/18 14:02:35;;;;;;;;;;;;;;;;;;4974974;28;19945;-67
2023/12/18 14:05:02;;;;;;;;;;;;;;;;;;4975462;28;19922;-67
2023/12/18 14:07:28;;;;;;;;;;;;;;;;;;4967991;28;19926;-67
2023/12/18 14:09:54;;;;;;;;;;;;;;;;;;4967898;28;20443;-70
2023/12/18 14:12:20;;;;;;;;;;;;;;;;;;4974629;28;20017;-69
2023/12/18 14:14:46;;;;;;;;;;;;;;;;;;4953942;28;19922;-69
2023/12/18 14:17:12;;;;;;;;;;;;;;;;;;4971008;28;19925;-68
2023/12/18 14:19:38;;;;;;;;;;;;;;;;;;4974598;28;19930;-68
2023/12/18 14:22:04;;;;;;;;;;;;;;;;;;4981855;28;19929;-68
2023/12/18 14:24:30;;;;;;;;;;;;;;;;;;4971863;28;19930;-68
2023/12/18 14:26:56;;;;;;;;;;;;;;;;;;4960740;28;19925;-69
2023/12/18 14:29:22;;;;;;;;;;;;;;;;;;4964726;28;20326;-69
2023/12/18 14:31:48;;;;;;;;;;;;;;;;;;4968571;28;20004;-69
2023/12/18 14:34:14;;;;;;;;;;;;;;;;;;4975253;28;19973;-68
2023/12/18 14:36:40;;;;;;;;;;;;;;;;;;4983041;28;20003;-68
2023/12/18 14:39:06;;;;;;;;;;;;;;;;;;4975989;28;19923;-68
2023/12/18 14:41:32;;;;;;;;;;;;;;;;;;4961263;28;19930;-68
2023/12/18 14:43:58;;;;;;;;;;;;;;;;;;4971459;28;19926;-69
2023/12/18 14:46:24;;;;;;;;;;;;;;;;;;4973524;28;19962;-69
2023/12/18 14:48:49;;;;;;;;;;;;;;;;;;4975326;28;19966;-69
2023/12/18 14:51:15;;;;;;;;;;;;;;;;;;4965924;28;20061;-67
2023/12/18 14:53:41;;;;;;;;;;;;;;;;;;4970296;28;20037;-68
2023/12/18 14:56:08;;;;;;;;;;;;;;;;;;4972803;28;20062;-67
2023/12/18 14:58:34;;;;;;;;;;;;;;;;;;4967848;28;19923;-68
2023/12/18 15:01:00;;;;;;;;;;;;;;;;;;4971491;28;19957;-68
2023/12/18 15:03:26;;;;;;;;;;;;;;;;;;4972469;28;19926;-69
2023/12/18 15:05:52;;;;;;;;;;;;;;;;;;4965917;28;19933;-68
2023/12/18 15:08:18;;;;;;;;;;;;;;;;;;4958836;28;19930;-68
2023/12/18 15:10:44;;;;;;;;;;;;;;;;;;4979931;28;20367;-68
2023/12/18 15:13:10;;;;;;;;;;;;;;;;;;4970521;28;19926;-68
2023/12/18 15:15:36;;;;;;;;;;;;;;;;;;4952565;28;19922;-67
2023/12/18 15:18:02;;;;;;;;;;;;;;;;;;4978931;28;19933;-68
2023/12/18 15:20:28;;;;;;;;;;;;;;;;;;4984817;28;19926;-68
2023/12/18 15:22:54;;;;;;;;;;;;;;;;;;4969532;28;19965;-68
2023/12/18 15:25:20;;;;;;;;;;;;;;;;;;4970668;28;19923;-68
2023/12/18 15:27:46;;;;;;;;;;;;;;;;;;4975441;28;19926;-68
2023/12/18 15:30:12;;;;;;;;;;;;;;;;;;4967125;28;19926;-69
2023/12/18 15:32:41;;;;;;;;;;;;;;;;;;4984353;28;20451;-69
2023/12/18 15:35:07;;;;;;;;;;;;;;;;;;4978007;28;19930;-69
2023/12/18 15:37:32;;;;;;;;;;;;;;;;;;4973855;28;19930;-69
2023/12/18 15:39:58;;;;;;;;;;;;;;;;;;4965660;28;20430;-69
2023/12/18 15:42:24;;;;;;;;;;;;;;;;;;4969457;28;19929;-69
2023/12/18 15:44:51;;;;;;;;;;;;;;;;;;4973990;28;19998;-69
2023/12/18 15:47:17;;;;;;;;;;;;;;;;;;4971814;28;19949;-69
2023/12/18 15:49:44;;;;;;;;;;;;;;;;;;4968852;28;19926;-69
2023/12/18 15:52:11;;;;;;;;;;;;;;;;;;4970573;28;19933;-69
2023/12/18 15:54:38;;;;;;;;;;;;;;;;;;4958020;28;20308;-69
2023/12/18 15:57:04;;;;;;;;;;;;;;;;;;4962218;28;20076;-69
2023/12/18 15:59:29;;;;;;;;;;;;;;;;;;4949381;28;20411;-69
2023/12/18 16:01:55;;;;;;;;;;;;;;;;;;4960358;28;20057;-69
2023/12/18 16:04:23;;;;;;;;;;;;;;;;;;4964324;28;19926;-69
2023/12/18 16:06:49;;;;;;;;;;;;;;;;;;4974646;28;20178;-69
2023/12/18 16:09:14;;;;;;;;;;;;;;;;;;4966576;28;20423;-68
2023/12/18 16:11:40;;;;;;;;;;;;;;;;;;4972842;28;20041;-68
2023/12/18 16:14:06;;;;;;;;;;;;;;;;;;4968896;28;20068;-68
2023/12/18 16:16:32;;;;;;;;;;;;;;;;;;4972526;28;19933;-68
2023/12/18 16:18:58;;;;;;;;;;;;;;;;;;4974845;28;20538;-68
2023/12/18 16:21:24;;;;;;;;;;;;;;;;;;4968548;28;20021;-69
2023/12/18 16:23:51;;;;;;;;;;;;;;;;;;4969768;28;20249;-68
2023/12/18 16:26:17;;;;;;;;;;;;;;;;;;4952592;28;19932;-69
2023/12/18 16:28:43;;;;;;;;;;;;;;;;;;4971150;28;19926;-69
2023/12/18 16:31:08;;;;;;;;;;;;;;;;;;4968871;28;19976;-69
2023/12/18 16:33:34;;;;;;;;;;;;;;;;;;4972003;28;19977;-69
2023/12/18 16:36:00;;;;;;;;;;;;;;;;;;4965933;28;19930;-69